Time;durP1;ratioP1;P1;durP2;ratioP2;P2;SDS_P1;SDS_P2;PMS_P1;PMS_P2;Temp;Humidity;BMP_temperature;BMP_pressure;BME280_temperature;BME280_humidity;BME280_pressure;Samples;Min_cycle;Max_cycle;Signal;HPM_P1;HPM_P2
2022/03/08 00:00:06;;;;;;;9.85;5.20;;;;;;;;;;5062960;28;20066;-64
2022/03/08 00:02:32;;;;;;;26.08;6.57;;;;;;;;;;5082833;28;20056;-64
2022/03/08 00:04:58;;;;;;;9.88;5.70;;;;;;;;;;5050435;28;20080;-64
2022/03/08 00:07:24;;;;;;;12.43;5.57;;;;;;;;;;5046676;28;20124;-64
2022/03/08 00:09:50;;;;;;;10.63;5.00;;;;;;;;;;5058912;28;20543;-64
2022/03/08 00:12:16;;;;;;;8.85;4.72;;;;;;;;;;5064704;28;20045;-64
2022/03/08 00:14:43;;;;;;;12.82;5.78;;;;;;;;;;5054384;28;20109;-64
2022/03/08 00:17:09;;;;;;;10.52;5.32;;;;;;;;;;5063517;28;21964;-64
2022/03/08 00:19:35;;;;;;;10.68;5.22;;;;;;;;;;5055532;28;20396;-64
2022/03/08 00:22:01;;;;;;;10.63;5.68;;;;;;;;;;5057791;28;20040;-64
2022/03/08 00:24:28;;;;;;;14.15;5.55;;;;;;;;;;5051381;28;20051;-64
2022/03/08 00:26:54;;;;;;;10.80;6.43;;;;;;;;;;5052895;28;20488;-64
2022/03/08 00:29:20;;;;;;;11.02;5.10;;;;;;;;;;5057781;28;20097;-64
2022/03/08 00:31:46;;;;;;;10.82;5.65;;;;;;;;;;5057338;28;20075;-64
2022/03/08 00:34:12;;;;;;;12.45;5.55;;;;;;;;;;5058459;28;20083;-64
2022/03/08 00:36:38;;;;;;;11.45;5.85;;;;;;;;;;5056616;28;20079;-64
2022/03/08 00:39:05;;;;;;;11.13;5.55;;;;;;;;;;5058126;28;20456;-64
2022/03/08 00:41:31;;;;;;;11.90;5.68;;;;;;;;;;5052758;28;20080;-64
2022/03/08 00:43:57;;;;;;;11.10;5.93;;;;;;;;;;5049611;28;20112;-64
2022/03/08 00:46:23;;;;;;;11.70;5.57;;;;;;;;;;5056515;28;20476;-64
2022/03/08 00:48:50;;;;;;;11.82;5.63;;;;;;;;;;5057103;28;20059;-64
2022/03/08 00:51:17;;;;;;;13.23;6.20;;;;;;;;;;5057989;28;20459;-64
2022/03/08 00:53:43;;;;;;;12.05;5.63;;;;;;;;;;5055192;28;20140;-64
2022/03/08 00:56:09;;;;;;;13.00;6.63;;;;;;;;;;5056281;28;20123;-63
2022/03/08 00:58:36;;;;;;;13.88;6.38;;;;;;;;;;5055187;28;20515;-64
2022/03/08 01:01:03;;;;;;;11.32;6.13;;;;;;;;;;5050144;28;20381;-64
2022/03/08 01:03:29;;;;;;;13.40;6.63;;;;;;;;;;5058118;28;20397;-64
2022/03/08 01:05:55;;;;;;;11.40;6.65;;;;;;;;;;5058608;28;20045;-64
2022/03/08 01:08:21;;;;;;;15.48;6.70;;;;;;;;;;5052593;28;20133;-64
2022/03/08 01:10:47;;;;;;;10.32;6.10;;;;;;;;;;5046403;28;20338;-64
2022/03/08 01:13:13;;;;;;;11.30;5.28;;;;;;;;;;5042683;28;20103;-64
2022/03/08 01:15:39;;;;;;;10.30;5.32;;;;;;;;;;5037518;28;20132;-64
2022/03/08 01:18:06;;;;;;;12.07;6.10;;;;;;;;;;5049257;28;20048;-64
2022/03/08 01:20:32;;;;;;;11.02;6.10;;;;;;;;;;5051968;28;20072;-64
2022/03/08 01:22:58;;;;;;;12.63;6.03;;;;;;;;;;5051646;28;20047;-64
2022/03/08 01:25:24;;;;;;;12.57;6.15;;;;;;;;;;5054469;28;20155;-64
2022/03/08 01:27:51;;;;;;;13.55;6.38;;;;;;;;;;5054117;28;20517;-64
2022/03/08 01:30:20;;;;;;;12.65;6.30;;;;;;;;;;5044657;28;20045;-64
2022/03/08 01:32:46;;;;;;;13.27;6.13;;;;;;;;;;5035140;28;20041;-64
2022/03/08 01:35:12;;;;;;;11.88;6.00;;;;;;;;;;5056353;28;20037;-63
2022/03/08 01:37:39;;;;;;;12.73;6.70;;;;;;;;;;5058851;28;20063;-64
2022/03/08 01:40:06;;;;;;;16.55;6.28;;;;;;;;;;5055424;28;20048;-64
2022/03/08 01:42:33;;;;;;;13.13;5.97;;;;;;;;;;5054526;28;20076;-64
2022/03/08 01:44:59;;;;;;;15.68;6.80;;;;;;;;;;5056119;28;20044;-64
2022/03/08 01:47:25;;;;;;;13.88;6.95;;;;;;;;;;5054392;28;20044;-64
2022/03/08 01:49:52;;;;;;;12.50;6.13;;;;;;;;;;5055619;28;20047;-63
2022/03/08 01:52:20;;;;;;;15.60;6.45;;;;;;;;;;5053517;28;20053;-64
2022/03/08 01:54:46;;;;;;;13.57;6.63;;;;;;;;;;5050668;28;20126;-64
2022/03/08 01:57:13;;;;;;;10.77;6.45;;;;;;;;;;5052875;28;20565;-64
2022/03/08 01:59:39;;;;;;;27.27;6.13;;;;;;;;;;5054128;28;20124;-63
2022/03/08 02:02:06;;;;;;;11.80;6.10;;;;;;;;;;5050947;28;20068;-64
2022/03/08 02:04:32;;;;;;;15.52;6.72;;;;;;;;;;5053504;28;20502;-64
2022/03/08 02:07:00;;;;;;;11.00;5.55;;;;;;;;;;5054131;28;20717;-63
2022/03/08 02:09:26;;;;;;;13.88;6.88;;;;;;;;;;5053219;28;20040;-63
2022/03/08 02:11:52;;;;;;;12.00;6.55;;;;;;;;;;5053995;28;20095;-64
2022/03/08 02:14:19;;;;;;;12.02;6.47;;;;;;;;;;5052196;28;20392;-63
2022/03/08 02:16:45;;;;;;;13.57;6.32;;;;;;;;;;5027618;28;20147;-63
2022/03/08 02:19:12;;;;;;;11.38;6.80;;;;;;;;;;5047954;28;20070;-64
2022/03/08 02:21:38;;;;;;;13.20;6.88;;;;;;;;;;5041432;28;20041;-64
2022/03/08 02:24:04;;;;;;;12.93;6.47;;;;;;;;;;5039885;28;20041;-64
2022/03/08 02:26:32;;;;;;;15.60;7.10;;;;;;;;;;5040533;28;20090;-64
2022/03/08 02:28:59;;;;;;;16.40;6.90;;;;;;;;;;5045634;28;20068;-64
2022/03/08 02:31:26;;;;;;;12.63;6.03;;;;;;;;;;5044072;28;20083;-64
2022/03/08 02:33:52;;;;;;;12.05;6.47;;;;;;;;;;5043328;28;20044;-64
2022/03/08 02:36:18;;;;;;;12.05;6.43;;;;;;;;;;5048945;28;20044;-63
2022/03/08 02:38:44;;;;;;;15.43;7.10;;;;;;;;;;5064230;28;20083;-64
2022/03/08 02:41:10;;;;;;;14.63;6.85;;;;;;;;;;5049489;28;20052;-63
2022/03/08 02:43:36;;;;;;;12.35;6.47;;;;;;;;;;5052036;28;20040;-64
2022/03/08 02:46:03;;;;;;;10.65;6.15;;;;;;;;;;5050788;28;20472;-64
2022/03/08 02:48:29;;;;;;;13.10;7.68;;;;;;;;;;5053994;28;20111;-64
2022/03/08 02:50:55;;;;;;;10.63;5.95;;;;;;;;;;5053861;28;20044;-64
2022/03/08 02:53:22;;;;;;;14.68;7.20;;;;;;;;;;5049192;28;20056;-64
2022/03/08 02:55:48;;;;;;;12.30;6.43;;;;;;;;;;5048729;28;20132;-64
2022/03/08 02:58:14;;;;;;;16.63;6.60;;;;;;;;;;5054559;28;20057;-64
2022/03/08 03:00:41;;;;;;;14.60;7.00;;;;;;;;;;5054519;28;20041;-64
2022/03/08 03:03:07;;;;;;;13.32;6.50;;;;;;;;;;5058644;28;20476;-63
2022/03/08 03:05:34;;;;;;;10.75;6.30;;;;;;;;;;5061525;28;20375;-64
2022/03/08 03:08:00;;;;;;;14.80;7.00;;;;;;;;;;5058905;28;20045;-63
2022/03/08 03:10:26;;;;;;;13.30;6.90;;;;;;;;;;5061875;28;20057;-63
2022/03/08 03:12:54;;;;;;;16.88;7.75;;;;;;;;;;5055216;28;20048;-64
2022/03/08 03:15:21;;;;;;;13.52;7.10;;;;;;;;;;5061534;28;20048;-64
2022/03/08 03:17:48;;;;;;;12.02;6.90;;;;;;;;;;5061281;28;20049;-63
2022/03/08 03:20:16;;;;;;;15.65;8.20;;;;;;;;;;5060101;28;20048;-63
2022/03/08 03:22:42;;;;;;;15.32;7.78;;;;;;;;;;5056865;28;20104;-63
2022/03/08 03:25:08;;;;;;;12.77;7.38;;;;;;;;;;5064338;28;20068;-64
2022/03/08 03:27:35;;;;;;;12.73;7.00;;;;;;;;;;5060971;28;20041;-64
2022/03/08 03:30:01;;;;;;;15.93;7.40;;;;;;;;;;5061775;28;20063;-63
2022/03/08 03:32:27;;;;;;;16.70;7.85;;;;;;;;;;5061593;28;20134;-63
2022/03/08 03:34:53;;;;;;;14.05;7.55;;;;;;;;;;5048845;28;20376;-64
2022/03/08 03:37:20;;;;;;;14.43;7.63;;;;;;;;;;5047893;28;20041;-63
2022/03/08 03:39:46;;;;;;;14.25;8.00;;;;;;;;;;5051493;28;20456;-64
2022/03/08 03:42:12;;;;;;;15.38;7.82;;;;;;;;;;5047414;28;20041;-64
2022/03/08 03:44:38;;;;;;;17.48;8.48;;;;;;;;;;5047038;28;20036;-64
2022/03/08 03:47:04;;;;;;;16.95;8.38;;;;;;;;;;5057334;28;20094;-64
2022/03/08 03:49:31;;;;;;;16.80;8.38;;;;;;;;;;5059675;28;20044;-64
2022/03/08 03:51:57;;;;;;;17.20;9.55;;;;;;;;;;5054837;28;20045;-64
2022/03/08 03:54:23;;;;;;;15.05;8.38;;;;;;;;;;5056880;28;20052;-63
2022/03/08 03:56:50;;;;;;;18.13;9.65;;;;;;;;;;5060075;28;20037;-64
2022/03/08 03:59:17;;;;;;;16.73;9.75;;;;;;;;;;5057567;28;20377;-63
2022/03/08 04:01:43;;;;;;;21.17;8.48;;;;;;;;;;5055701;28;20051;-64
2022/03/08 04:04:09;;;;;;;16.23;8.65;;;;;;;;;;5055016;28;20136;-63
2022/03/08 04:06:36;;;;;;;15.88;8.60;;;;;;;;;;5058225;28;20049;-64
2022/03/08 04:09:03;;;;;;;18.08;9.63;;;;;;;;;;5055833;28;20102;-64
2022/03/08 04:11:29;;;;;;;19.85;10.65;;;;;;;;;;5053722;28;20500;-64
2022/03/08 04:13:55;;;;;;;18.35;9.32;;;;;;;;;;5054122;28;20179;-64
2022/03/08 04:16:21;;;;;;;17.23;9.75;;;;;;;;;;5055810;28;20072;-64
2022/03/08 04:18:47;;;;;;;20.77;10.63;;;;;;;;;;5055382;28;20087;-64
2022/03/08 04:21:13;;;;;;;18.73;10.18;;;;;;;;;;5054218;28;20150;-64
2022/03/08 04:23:39;;;;;;;17.45;9.32;;;;;;;;;;5052552;28;20091;-63
2022/03/08 04:26:05;;;;;;;18.08;9.95;;;;;;;;;;5056387;28;20037;-64
2022/03/08 04:28:31;;;;;;;18.83;9.88;;;;;;;;;;5054598;28;20044;-64
2022/03/08 04:30:58;;;;;;;18.00;9.82;;;;;;;;;;5054770;28;20514;-64
2022/03/08 04:33:24;;;;;;;18.17;9.75;;;;;;;;;;5055262;28;20051;-64
2022/03/08 04:35:50;;;;;;;18.65;9.70;;;;;;;;;;5054495;28;20380;-64
2022/03/08 04:38:16;;;;;;;17.50;9.85;;;;;;;;;;5052535;28;20053;-64
2022/03/08 04:40:42;;;;;;;19.13;10.05;;;;;;;;;;5052417;28;20098;-63
2022/03/08 04:43:08;;;;;;;19.08;9.35;;;;;;;;;;5052611;28;20082;-64
2022/03/08 04:45:34;;;;;;;21.77;10.77;;;;;;;;;;5045488;28;20052;-64
2022/03/08 04:48:01;;;;;;;22.63;10.30;;;;;;;;;;5037227;28;20040;-63
2022/03/08 04:50:27;;;;;;;21.58;10.18;;;;;;;;;;5050756;28;20059;-64
2022/03/08 04:52:53;;;;;;;19.20;10.20;;;;;;;;;;5050542;28;20044;-64
2022/03/08 04:55:20;;;;;;;18.73;10.27;;;;;;;;;;5080698;28;20078;-64
2022/03/08 04:57:46;;;;;;;17.30;9.95;;;;;;;;;;5050878;28;20488;-64
2022/03/08 05:00:13;;;;;;;17.50;9.70;;;;;;;;;;5056876;28;20102;-64
2022/03/08 05:02:39;;;;;;;22.88;11.05;;;;;;;;;;5050324;28;20056;-64
2022/03/08 05:05:06;;;;;;;20.80;10.38;;;;;;;;;;5050941;28;20083;-63
2022/03/08 05:07:32;;;;;;;17.20;10.60;;;;;;;;;;5060596;28;20044;-64
2022/03/08 05:09:58;;;;;;;19.20;10.55;;;;;;;;;;5054194;28;20360;-64
2022/03/08 05:12:25;;;;;;;19.42;10.82;;;;;;;;;;5051649;28;20040;-64
2022/03/08 05:14:51;;;;;;;22.20;11.40;;;;;;;;;;5061587;28;20488;-64
2022/03/08 05:17:17;;;;;;;17.40;10.15;;;;;;;;;;5059465;28;20056;-64
2022/03/08 05:19:43;;;;;;;18.92;10.13;;;;;;;;;;5061011;28;20060;-64
2022/03/08 05:22:09;;;;;;;18.73;10.63;;;;;;;;;;5058311;28;20068;-64
2022/03/08 05:24:35;;;;;;;22.92;11.23;;;;;;;;;;5051728;28;20072;-64
2022/03/08 05:27:01;;;;;;;18.55;10.45;;;;;;;;;;5052893;28;20029;-64
2022/03/08 05:29:28;;;;;;;18.83;10.40;;;;;;;;;;5057730;28;20368;-64
2022/03/08 05:31:54;;;;;;;19.00;10.88;;;;;;;;;;5048320;28;20129;-64
2022/03/08 05:34:20;;;;;;;22.27;10.77;;;;;;;;;;5063555;28;20186;-64
2022/03/08 05:36:46;;;;;;;21.95;10.80;;;;;;;;;;5060685;28;20040;-64
2022/03/08 05:39:12;;;;;;;33.88;12.57;;;;;;;;;;5073989;28;20037;-64
2022/03/08 05:41:39;;;;;;;23.08;10.90;;;;;;;;;;5056758;28;20093;-64
2022/03/08 05:44:05;;;;;;;22.60;10.73;;;;;;;;;;5057397;28;20143;-64
2022/03/08 05:46:31;;;;;;;19.83;10.65;;;;;;;;;;5049990;28;20045;-64
2022/03/08 05:48:57;;;;;;;28.63;11.65;;;;;;;;;;5052226;28;20040;-64
2022/03/08 05:51:23;;;;;;;23.20;10.77;;;;;;;;;;5043651;28;20044;-63
2022/03/08 05:53:49;;;;;;;18.98;10.63;;;;;;;;;;5041951;28;20523;-64
2022/03/08 05:56:16;;;;;;;26.17;10.88;;;;;;;;;;5048700;28;20520;-63
2022/03/08 05:58:42;;;;;;;21.38;11.25;;;;;;;;;;5056406;28;20089;-64
2022/03/08 06:01:08;;;;;;;19.83;11.68;;;;;;;;;;5047399;28;20052;-63
2022/03/08 06:03:34;;;;;;;20.75;11.73;;;;;;;;;;5053151;28;20048;-64
2022/03/08 06:06:00;;;;;;;18.67;10.63;;;;;;;;;;5056501;28;20037;-64
2022/03/08 06:08:26;;;;;;;24.60;11.98;;;;;;;;;;5056058;28;20056;-64
2022/03/08 06:10:52;;;;;;;22.58;12.60;;;;;;;;;;5059506;28;20049;-64
2022/03/08 06:13:19;;;;;;;26.25;12.50;;;;;;;;;;5055491;28;20040;-64
2022/03/08 06:15:45;;;;;;;22.55;12.80;;;;;;;;;;5058104;28;20037;-63
2022/03/08 06:18:11;;;;;;;22.83;12.35;;;;;;;;;;5056868;28;20090;-64
2022/03/08 06:20:37;;;;;;;21.95;12.30;;;;;;;;;;5052225;28;20592;-63
2022/03/08 06:23:03;;;;;;;20.17;11.95;;;;;;;;;;5047321;28;20044;-64
2022/03/08 06:25:29;;;;;;;21.33;11.40;;;;;;;;;;5048904;28;20045;-63
2022/03/08 06:27:56;;;;;;;20.08;11.52;;;;;;;;;;5042458;28;20366;-64
2022/03/08 06:30:22;;;;;;;22.17;11.65;;;;;;;;;;5034598;28;20126;-64
2022/03/08 06:32:48;;;;;;;23.83;12.25;;;;;;;;;;5031172;28;20488;-64
2022/03/08 06:35:14;;;;;;;19.40;11.55;;;;;;;;;;5032697;28;20067;-65
2022/03/08 06:37:40;;;;;;;22.90;12.57;;;;;;;;;;5034358;28;20136;-64
2022/03/08 06:40:07;;;;;;;22.35;12.20;;;;;;;;;;5035416;28;20037;-66
2022/03/08 06:42:34;;;;;;;20.65;11.30;;;;;;;;;;5035256;28;20136;-65
2022/03/08 06:45:00;;;;;;;23.40;12.05;;;;;;;;;;5037300;28;20053;-68
2022/03/08 06:47:26;;;;;;;20.08;11.13;;;;;;;;;;5043779;28;20112;-65
2022/03/08 06:49:53;;;;;;;18.95;11.48;;;;;;;;;;5039123;28;20041;-65
2022/03/08 06:52:19;;;;;;;22.80;11.80;;;;;;;;;;5040958;28;20037;-65
2022/03/08 06:54:45;;;;;;;21.48;12.48;;;;;;;;;;5049336;28;20136;-66
2022/03/08 06:57:11;;;;;;;19.77;11.55;;;;;;;;;;5051026;28;20155;-65
2022/03/08 06:59:38;;;;;;;18.60;10.95;;;;;;;;;;5031580;28;20073;-66
2022/03/08 07:02:04;;;;;;;24.45;11.55;;;;;;;;;;5043027;28;20041;-66
2022/03/08 07:04:30;;;;;;;20.05;11.82;;;;;;;;;;5036599;28;20052;-66
2022/03/08 07:06:56;;;;;;;24.13;12.27;;;;;;;;;;5044355;28;20048;-66
2022/03/08 07:09:23;;;;;;;20.67;10.75;;;;;;;;;;5043634;28;20045;-66
2022/03/08 07:11:49;;;;;;;19.33;10.63;;;;;;;;;;5042398;28;20048;-66
2022/03/08 07:14:17;;;;;;;20.92;11.20;;;;;;;;;;5047211;28;20045;-67
2022/03/08 07:16:44;;;;;;;17.25;10.27;;;;;;;;;;5073054;28;20041;-66
2022/03/08 07:19:10;;;;;;;19.58;10.77;;;;;;;;;;5043074;28;20610;-66
2022/03/08 07:21:36;;;;;;;20.63;10.50;;;;;;;;;;5038726;28;20037;-65
2022/03/08 07:24:02;;;;;;;17.75;9.70;;;;;;;;;;5040782;28;20440;-65
2022/03/08 07:26:28;;;;;;;24.75;11.45;;;;;;;;;;5042319;28;20407;-65
2022/03/08 07:28:54;;;;;;;23.73;10.90;;;;;;;;;;5038886;28;20092;-65
2022/03/08 07:31:20;;;;;;;17.40;10.13;;;;;;;;;;5048356;28;20049;-64
2022/03/08 07:33:47;;;;;;;17.63;9.93;;;;;;;;;;5044712;28;20048;-64
2022/03/08 07:36:13;;;;;;;21.25;9.90;;;;;;;;;;5046469;28;20080;-64
2022/03/08 07:38:39;;;;;;;22.35;10.43;;;;;;;;;;5039854;28;20041;-64
2022/03/08 07:41:06;;;;;;;17.38;9.65;;;;;;;;;;5049205;28;20136;-64
2022/03/08 07:43:34;;;;;;;20.88;10.65;;;;;;;;;;5044151;28;20160;-64
2022/03/08 07:46:00;;;;;;;19.98;9.65;;;;;;;;;;5041534;28;20048;-64
2022/03/08 07:48:27;;;;;;;20.83;10.43;;;;;;;;;;5042149;28;20048;-64
2022/03/08 07:50:53;;;;;;;19.77;9.95;;;;;;;;;;5048191;28;20369;-64
2022/03/08 07:53:19;;;;;;;26.15;10.40;;;;;;;;;;5035565;28;20060;-64
2022/03/08 07:55:46;;;;;;;20.35;10.50;;;;;;;;;;5034850;28;20057;-64
2022/03/08 07:58:14;;;;;;;25.13;10.13;;;;;;;;;;5038052;28;20096;-64
2022/03/08 08:00:40;;;;;;;22.75;9.60;;;;;;;;;;5045145;28;20073;-64
2022/03/08 08:03:07;;;;;;;20.75;10.48;;;;;;;;;;5041404;28;20120;-64
2022/03/08 08:05:34;;;;;;;17.90;9.70;;;;;;;;;;5043109;28;20036;-64
2022/03/08 08:08:01;;;;;;;15.27;9.55;;;;;;;;;;5043627;28;20041;-64
2022/03/08 08:10:27;;;;;;;17.52;10.25;;;;;;;;;;5045729;28;20043;-63
2022/03/08 08:12:53;;;;;;;16.42;9.48;;;;;;;;;;5040462;28;20107;-64
2022/03/08 08:15:19;;;;;;;13.43;8.52;;;;;;;;;;5044671;28;20037;-64
2022/03/08 08:17:45;;;;;;;14.65;9.05;;;;;;;;;;5039963;28;20049;-63
2022/03/08 08:20:12;;;;;;;19.85;9.52;;;;;;;;;;5046943;28;20431;-64
2022/03/08 08:22:38;;;;;;;15.63;9.38;;;;;;;;;;5043194;28;20040;-64
2022/03/08 08:25:05;;;;;;;16.38;9.57;;;;;;;;;;5041039;28;20049;-64
2022/03/08 08:27:31;;;;;;;16.90;9.23;;;;;;;;;;5046978;28;20387;-64
2022/03/08 08:29:57;;;;;;;19.98;9.30;;;;;;;;;;5039761;28;20124;-64
2022/03/08 08:32:23;;;;;;;17.90;8.88;;;;;;;;;;5041445;28;20184;-63
2022/03/08 08:34:49;;;;;;;14.82;8.80;;;;;;;;;;5048489;28;20040;-64
2022/03/08 08:37:15;;;;;;;14.48;9.20;;;;;;;;;;5041353;28;20044;-64
2022/03/08 08:39:42;;;;;;;19.83;9.27;;;;;;;;;;5044468;28;20519;-64
2022/03/08 08:42:08;;;;;;;15.55;7.63;;;;;;;;;;5044817;28;20041;-64
2022/03/08 08:44:34;;;;;;;17.38;9.60;;;;;;;;;;5036447;28;20169;-64
2022/03/08 08:47:01;;;;;;;14.60;8.52;;;;;;;;;;5044555;28;20041;-64
2022/03/08 08:49:28;;;;;;;15.10;9.50;;;;;;;;;;5045155;28;20049;-64
2022/03/08 08:51:55;;;;;;;13.60;8.77;;;;;;;;;;5042656;28;20140;-64
2022/03/08 08:54:22;;;;;;;14.45;8.43;;;;;;;;;;5044305;28;20124;-64
2022/03/08 08:56:48;;;;;;;19.13;8.93;;;;;;;;;;5045396;28;20045;-64
2022/03/08 08:59:14;;;;;;;14.35;9.52;;;;;;;;;;5039120;28;20049;-64
2022/03/08 09:01:40;;;;;;;14.40;8.63;;;;;;;;;;5045832;28;20080;-64
2022/03/08 09:04:06;;;;;;;14.50;8.68;;;;;;;;;;5045942;28;20038;-65
2022/03/08 09:06:33;;;;;;;15.95;9.65;;;;;;;;;;5036631;28;20460;-65
2022/03/08 09:08:59;;;;;;;12.10;7.70;;;;;;;;;;5040443;28;20048;-65
2022/03/08 09:11:25;;;;;;;12.35;7.90;;;;;;;;;;5046336;28;20084;-65
2022/03/08 09:13:52;;;;;;;15.68;7.60;;;;;;;;;;5042928;28;20524;-64
2022/03/08 09:16:18;;;;;;;10.90;6.45;;;;;;;;;;5045214;28;20056;-64
2022/03/08 09:18:45;;;;;;;10.32;6.75;;;;;;;;;;5038108;28;20145;-65
2022/03/08 09:21:12;;;;;;;14.45;7.57;;;;;;;;;;5037684;28;20037;-64
2022/03/08 09:23:38;;;;;;;14.27;7.32;;;;;;;;;;5043297;28;20045;-64
2022/03/08 09:26:05;;;;;;;11.90;7.38;;;;;;;;;;5040418;28;20041;-65
2022/03/08 09:28:31;;;;;;;11.80;6.50;;;;;;;;;;5032079;28;20139;-64
2022/03/08 09:30:59;;;;;;;11.40;6.35;;;;;;;;;;5043112;28;20040;-65
2022/03/08 09:33:25;;;;;;;10.25;6.20;;;;;;;;;;5037872;28;20480;-65
2022/03/08 09:35:51;;;;;;;12.13;7.22;;;;;;;;;;5044035;28;20132;-65
2022/03/08 09:38:17;;;;;;;10.32;6.25;;;;;;;;;;5045372;28;20032;-65
2022/03/08 09:40:44;;;;;;;12.65;6.88;;;;;;;;;;5058109;28;20045;-65
2022/03/08 09:43:14;;;;;;;11.63;6.63;;;;;;;;;;5047693;28;20037;-65
2022/03/08 09:45:40;;;;;;;10.70;6.38;;;;;;;;;;5032015;28;20503;-65
2022/03/08 09:48:06;;;;;;;11.02;6.70;;;;;;;;;;5032220;28;20196;-66
2022/03/08 09:50:33;;;;;;;11.23;7.57;;;;;;;;;;5038350;28;20049;-65
2022/03/08 09:53:00;;;;;;;11.65;6.32;;;;;;;;;;5049723;28;20385;-65
2022/03/08 09:55:26;;;;;;;10.68;6.32;;;;;;;;;;5050453;28;20475;-64
2022/03/08 09:57:53;;;;;;;9.90;6.25;;;;;;;;;;5042210;28;20049;-66
2022/03/08 10:00:22;;;;;;;9.60;6.18;;;;;;;;;;5047404;28;20037;-64
2022/03/08 10:02:51;;;;;;;13.80;6.93;;;;;;;;;;5035490;28;20041;-64
2022/03/08 10:05:21;;;;;;;11.40;6.82;;;;;;;;;;5032039;28;20063;-65
2022/03/08 10:08:10;;;;;;;9.63;5.80;;;;;;;;;;5047168;28;20076;-64
2022/03/08 10:10:47;;;;;;;8.48;5.60;;;;;;;;;;5053644;28;20344;-65
2022/03/08 10:13:14;;;;;;;10.80;6.15;;;;;;;;;;5045312;28;20072;-65
2022/03/08 10:15:40;;;;;;;11.52;6.10;;;;;;;;;;5050467;28;21742;-64
2022/03/08 10:18:06;;;;;;;9.13;6.07;;;;;;;;;;5034443;28;20080;-65
2022/03/08 10:20:33;;;;;;;9.20;5.65;;;;;;;;;;5047720;28;20051;-65
2022/03/08 10:23:00;;;;;;;7.90;5.15;;;;;;;;;;5041711;28;20041;-65
2022/03/08 10:25:29;;;;;;;9.75;5.65;;;;;;;;;;5054418;28;20099;-65
2022/03/08 10:27:55;;;;;;;10.13;5.35;;;;;;;;;;5053122;28;20130;-65
2022/03/08 10:30:28;;;;;;;10.48;6.07;;;;;;;;;;5037573;28;20034;-65
2022/03/08 10:32:56;;;;;;;9.90;5.75;;;;;;;;;;5034404;28;20510;-65
2022/03/08 10:35:23;;;;;;;10.38;6.07;;;;;;;;;;5038439;28;20053;-65
2022/03/08 10:37:49;;;;;;;10.02;5.70;;;;;;;;;;5052527;28;20067;-65
2022/03/08 10:40:22;;;;;;;8.55;5.18;;;;;;;;;;5053614;28;20498;-65
2022/03/08 10:42:57;;;;;;;9.63;5.63;;;;;;;;;;5042941;28;20554;-65
2022/03/08 10:45:26;;;;;;;10.05;5.93;;;;;;;;;;5034666;28;20373;-65
2022/03/08 10:47:53;;;;;;;10.70;5.43;;;;;;;;;;5051950;28;20045;-66
2022/03/08 10:50:23;;;;;;;9.98;6.00;;;;;;;;;;5034951;28;20056;-65
2022/03/08 10:52:50;;;;;;;9.55;5.68;;;;;;;;;;5052225;28;20135;-66
2022/03/08 10:55:16;;;;;;;10.82;5.43;;;;;;;;;;5049244;28;20396;-65
2022/03/08 10:57:43;;;;;;;10.90;5.70;;;;;;;;;;5034765;28;20439;-64
2022/03/08 11:00:12;;;;;;;7.95;4.78;;;;;;;;;;5034958;28;20049;-64
2022/03/08 11:02:55;;;;;;;10.98;5.20;;;;;;;;;;5043269;28;20124;-64
2022/03/08 11:05:23;;;;;;;10.07;5.75;;;;;;;;;;5034076;28;20044;-64
2022/03/08 11:07:50;;;;;;;10.02;6.03;;;;;;;;;;5034856;28;20049;-64
2022/03/08 11:10:16;;;;;;;9.75;5.43;;;;;;;;;;5049564;28;20387;-64
2022/03/08 11:12:43;;;;;;;11.30;5.32;;;;;;;;;;5052895;28;20439;-64
2022/03/08 11:15:11;;;;;;;7.70;4.90;;;;;;;;;;5050840;28;20137;-65
2022/03/08 11:17:38;;;;;;;7.55;4.65;;;;;;;;;;5033975;28;20038;-65
2022/03/08 11:20:06;;;;;;;9.95;5.00;;;;;;;;;;5037458;28;20053;-65
2022/03/08 11:22:32;;;;;;;10.00;5.15;;;;;;;;;;5051188;28;20463;-65
2022/03/08 11:24:59;;;;;;;9.20;5.05;;;;;;;;;;5048403;28;20041;-66
2022/03/08 11:27:25;;;;;;;8.23;5.13;;;;;;;;;;5043428;28;20370;-66
2022/03/08 11:29:52;;;;;;;8.68;4.72;;;;;;;;;;5053305;28;20380;-65
2022/03/08 11:32:22;;;;;;;8.85;5.22;;;;;;;;;;5052720;28;20112;-66
2022/03/08 11:34:55;;;;;;;9.27;5.20;;;;;;;;;;5038562;28;20370;-66
2022/03/08 11:37:23;;;;;;;9.75;5.47;;;;;;;;;;5066351;28;20045;-66
2022/03/08 11:40:08;;;;;;;7.57;5.03;;;;;;;;;;5067428;28;20081;-65
2022/03/08 11:42:37;;;;;;;8.85;4.82;;;;;;;;;;5032745;28;20053;-66
2022/03/08 11:45:06;;;;;;;8.57;4.53;;;;;;;;;;5034566;28;20042;-66
2022/03/08 11:47:40;;;;;;;7.47;4.82;;;;;;;;;;5033576;28;20065;-66
2022/03/08 11:50:06;;;;;;;;;;;;;;;;;;5034669;28;20041;-66
2022/03/08 11:52:35;;;;;;;7.90;4.72;;;;;;;;;;5032233;28;19943;-66
2022/03/08 11:55:07;;;;;;;7.07;4.25;;;;;;;;;;5032622;28;20076;-66
2022/03/08 11:57:49;;;;;;;7.65;4.47;;;;;;;;;;5034343;28;20124;-66
2022/03/08 12:00:15;;;;;;;6.22;4.32;;;;;;;;;;5032001;28;20065;-66
2022/03/08 12:02:45;;;;;;;7.45;4.43;;;;;;;;;;5032576;28;20041;-66
2022/03/08 12:05:30;;;;;;;7.28;4.60;;;;;;;;;;5034227;28;20050;-66
2022/03/08 12:07:56;;;;;;;6.70;4.78;;;;;;;;;;5031872;28;20060;-66
2022/03/08 12:10:24;;;;;;;8.63;4.28;;;;;;;;;;5034029;28;20045;-66
2022/03/08 12:12:54;;;;;;;5.95;4.07;;;;;;;;;;5033838;28;20061;-66
2022/03/08 12:15:20;;;;;;;6.93;4.43;;;;;;;;;;5032914;28;20085;-66
2022/03/08 12:18:05;;;;;;;12.68;4.75;;;;;;;;;;5033894;28;20041;-66
2022/03/08 12:20:32;;;;;;;7.68;4.55;;;;;;;;;;5033143;28;20507;-66
2022/03/08 12:23:09;;;;;;;6.95;4.78;;;;;;;;;;5033273;28;20633;-64
2022/03/08 12:25:35;;;;;;;6.50;4.35;;;;;;;;;;5033679;28;20065;-64
2022/03/08 12:28:02;;;;;;;8.55;4.80;;;;;;;;;;5032656;28;20128;-64
2022/03/08 12:30:38;;;;;;;6.70;4.43;;;;;;;;;;5033738;28;20412;-64
2022/03/08 12:33:05;;;;;;;6.60;4.50;;;;;;;;;;5032270;28;20045;-64
2022/03/08 12:35:31;;;;;;;6.47;4.47;;;;;;;;;;5032781;28;20395;-64
2022/03/08 12:37:58;;;;;;;6.95;4.45;;;;;;;;;;5033351;28;20532;-64
2022/03/08 12:40:27;;;;;;;6.65;4.70;;;;;;;;;;5033460;28;20053;-64
2022/03/08 12:42:56;;;;;;;7.47;4.70;;;;;;;;;;5031402;28;20179;-64
2022/03/08 12:45:23;;;;;;;8.63;5.20;;;;;;;;;;5033405;28;20349;-64
2022/03/08 12:48:00;;;;;;;5.57;3.85;;;;;;;;;;5033211;28;20041;-64
2022/03/08 12:50:33;;;;;;;8.57;4.00;;;;;;;;;;5032359;28;20116;-64
2022/03/08 12:53:01;;;;;;;6.22;4.20;;;;;;;;;;5031454;28;20064;-64
2022/03/08 12:55:28;;;;;;;5.95;3.88;;;;;;;;;;5032874;28;20061;-64
2022/03/08 12:57:57;;;;;;;6.05;3.78;;;;;;;;;;5031161;28;20505;-64
2022/03/08 13:00:26;;;;;;;5.90;3.90;;;;;;;;;;5032030;28;20079;-64
2022/03/08 13:02:52;;;;;;;6.10;3.88;;;;;;;;;;5032471;28;20128;-64
2022/03/08 13:05:24;;;;;;;6.65;4.43;;;;;;;;;;5032492;28;20045;-64
2022/03/08 13:07:51;;;;;;;5.72;3.85;;;;;;;;;;5031511;28;20053;-64
2022/03/08 13:10:17;;;;;;;9.55;4.10;;;;;;;;;;5031962;28;20068;-64
2022/03/08 13:12:49;;;;;;;6.40;3.88;;;;;;;;;;5032544;28;20060;-64
2022/03/08 13:15:17;;;;;;;7.68;4.28;;;;;;;;;;5031218;28;20095;-64
2022/03/08 13:17:45;;;;;;;6.72;4.18;;;;;;;;;;5031951;28;20408;-63
2022/03/08 13:20:27;;;;;;;7.55;4.43;;;;;;;;;;5032814;28;20052;-64
2022/03/08 13:22:54;;;;;;;7.53;3.58;;;;;;;;;;5033512;28;20041;-64
2022/03/08 13:25:20;;;;;;;7.25;3.92;;;;;;;;;;5048227;28;20120;-64
2022/03/08 13:27:49;;;;;;;5.32;3.63;;;;;;;;;;5050827;28;20087;-63
2022/03/08 13:30:16;;;;;;;7.05;3.75;;;;;;;;;;5045879;28;20051;-65
2022/03/08 13:32:42;;;;;;;6.28;3.80;;;;;;;;;;5030091;28;20049;-64
2022/03/08 13:35:10;;;;;;;7.35;4.25;;;;;;;;;;5032343;28;20064;-63
2022/03/08 13:37:50;;;;;;;8.95;4.68;;;;;;;;;;5034612;28;20048;-63
2022/03/08 13:40:26;;;;;;;9.73;4.70;;;;;;;;;;5037861;28;20044;-64
2022/03/08 13:42:52;;;;;;;7.88;3.80;;;;;;;;;;5050753;28;20448;-64
2022/03/08 13:45:19;;;;;;;7.88;3.90;;;;;;;;;;5036348;28;20045;-63
2022/03/08 13:47:45;;;;;;;8.85;3.67;;;;;;;;;;5032281;28;20120;-64
2022/03/08 13:50:11;;;;;;;5.97;3.35;;;;;;;;;;5031749;28;20121;-63
2022/03/08 13:52:37;;;;;;;5.78;3.70;;;;;;;;;;5038884;28;20053;-64
2022/03/08 13:55:05;;;;;;;8.57;4.95;;;;;;;;;;5031941;28;20059;-64
2022/03/08 13:57:31;;;;;;;7.65;4.72;;;;;;;;;;5034531;28;20423;-64
2022/03/08 13:59:57;;;;;;;7.40;4.10;;;;;;;;;;5048762;28;20067;-63
2022/03/08 14:02:24;;;;;;;8.57;4.35;;;;;;;;;;5050163;28;20522;-63
2022/03/08 14:04:50;;;;;;;6.45;3.22;;;;;;;;;;5041517;28;20056;-63
2022/03/08 14:07:20;;;;;;;5.28;3.15;;;;;;;;;;5029684;28;20045;-63
2022/03/08 14:09:56;;;;;;;7.95;3.22;;;;;;;;;;5046842;28;20071;-63
2022/03/08 14:12:23;;;;;;;5.63;3.30;;;;;;;;;;5035699;28;20072;-63
2022/03/08 14:15:02;;;;;;;7.15;3.60;;;;;;;;;;5031131;28;20095;-64
2022/03/08 14:17:30;;;;;;;5.75;3.42;;;;;;;;;;5047603;28;20056;-64
2022/03/08 14:19:56;;;;;;;6.03;3.63;;;;;;;;;;5037150;28;20481;-64
2022/03/08 14:22:22;;;;;;;7.80;3.47;;;;;;;;;;5049191;28;20103;-64
2022/03/08 14:24:59;;;;;;;8.45;4.00;;;;;;;;;;5041439;28;20060;-63
2022/03/08 14:27:25;;;;;;;8.63;4.03;;;;;;;;;;5046963;28;20132;-64
2022/03/08 14:30:08;;;;;;;6.85;4.22;;;;;;;;;;5079230;28;20452;-63